Time;durP1;ratioP1;P1;durP2;ratioP2;P2;SDS_P1;SDS_P2;PMS_P1;PMS_P2;Temp;Humidity;BMP_temperature;BMP_pressure;BME280_temperature;BME280_humidity;BME280_pressure;Samples;Min_cycle;Max_cycle;Signal;HPM_P1;HPM_P2
2022/11/14 00:06:53;;;;;;;9.65;4.60;;;;;;;;;;5006844;27;20488;-73
2022/11/14 00:09:41;;;;;;;9.95;4.78;;;;;;;;;;4952851;28;20134;-73
2022/11/14 00:17:19;;;;;;;10.25;4.93;;;;;;;;;;4992850;27;20489;-73
2022/11/14 00:19:46;;;;;;;;;;;;;;;;;;4910346;28;20047;-73
2022/11/14 00:27:27;;;;;;;11.35;5.15;;;;;;;;;;5095901;27;20429;-73
2022/11/14 00:29:54;;;;;;;11.10;5.18;;;;;;;;;;5008745;28;20108;-73
2022/11/14 00:32:21;;;;;;;11.38;4.90;;;;;;;;;;5024750;28;20080;-73
2022/11/14 00:34:48;;;;;;;11.07;4.82;;;;;;;;;;5005318;28;20060;-72
2022/11/14 00:37:17;;;;;;;12.02;5.10;;;;;;;;;;5053811;28;20045;-71
2022/11/14 00:39:44;;;;;;;13.52;5.65;;;;;;;;;;5030053;28;20139;-72
2022/11/14 00:42:10;;;;;;;12.45;5.35;;;;;;;;;;5025250;28;20052;-72
2022/11/14 00:44:42;;;;;;;10.50;5.13;;;;;;;;;;5007891;28;20066;-73
2022/11/14 00:47:09;;;;;;;12.00;5.30;;;;;;;;;;5039944;28;20040;-72
2022/11/14 00:49:37;;;;;;;10.23;5.13;;;;;;;;;;5037934;28;20048;-73
2022/11/14 00:52:04;;;;;;;12.32;5.57;;;;;;;;;;5066368;28;20060;-71
2022/11/14 00:54:32;;;;;;;14.55;6.03;;;;;;;;;;5040760;28;20131;-72
2022/11/14 00:56:59;;;;;;;11.98;5.90;;;;;;;;;;5042510;28;20111;-72
2022/11/14 00:59:26;;;;;;;15.30;5.95;;;;;;;;;;5000068;28;20078;-72
2022/11/14 01:04:28;;;;;;;17.77;6.30;;;;;;;;;;4963502;28;20057;-73
2022/11/14 01:06:56;;;;;;;13.63;6.45;;;;;;;;;;4927964;28;20712;-72
2022/11/14 01:09:22;;;;;;;13.43;6.15;;;;;;;;;;4968341;28;20050;-72
2022/11/14 01:11:50;;;;;;;12.18;5.57;;;;;;;;;;4949251;28;20059;-72
2022/11/14 01:14:17;;;;;;;15.40;6.00;;;;;;;;;;4956362;28;20054;-72
2022/11/14 01:16:44;;;;;;;12.35;6.03;;;;;;;;;;4963620;28;20244;-72
2022/11/14 01:19:10;;;;;;;14.48;6.65;;;;;;;;;;4930056;28;20130;-72
2022/11/14 01:21:39;;;;;;;15.15;6.32;;;;;;;;;;4944433;28;20043;-72
2022/11/14 01:24:06;;;;;;;;;;;;;;;;;;4930793;28;20046;-72
2022/11/14 01:26:33;;;;;;;12.77;5.22;;;;;;;;;;4927190;28;19949;-72
2022/11/14 01:29:00;;;;;;;13.27;6.18;;;;;;;;;;4915379;28;20056;-72
2022/11/14 01:31:29;;;;;;;14.10;6.38;;;;;;;;;;4932292;28;20058;-72
2022/11/14 01:33:57;;;;;;;13.02;6.30;;;;;;;;;;4912405;28;20051;-72
2022/11/14 01:43:58;;;;;;;13.75;6.20;;;;;;;;;;5044216;27;20419;-73
2022/11/14 01:46:30;;;;;;;13.55;5.95;;;;;;;;;;4950442;28;20058;-73
2022/11/14 01:49:00;;;;;;;15.13;6.38;;;;;;;;;;4938525;28;20050;-73
2022/11/14 01:51:31;;;;;;;15.60;6.40;;;;;;;;;;4944363;28;20137;-73
2022/11/14 01:56:26;;;;;;;14.38;6.80;;;;;;;;;;4888474;28;20065;-74
2022/11/14 01:58:56;;;;;;;16.65;7.18;;;;;;;;;;4903427;28;20198;-73
2022/11/14 02:01:25;;;;;;;13.02;6.13;;;;;;;;;;4933935;28;20145;-73
2022/11/14 02:03:54;;;;;;;14.38;6.43;;;;;;;;;;4908487;28;20062;-73
2022/11/14 02:06:22;;;;;;;15.63;6.60;;;;;;;;;;4901544;28;20059;-73
2022/11/14 02:08:50;;;;;;;20.70;7.25;;;;;;;;;;4932280;28;20050;-73
2022/11/14 02:11:22;;;;;;;15.52;6.68;;;;;;;;;;4892965;28;20106;-73
2022/11/14 02:13:49;;;;;;;18.02;7.45;;;;;;;;;;4931400;28;20059;-73
2022/11/14 02:16:16;;;;;;;17.08;7.05;;;;;;;;;;4935746;28;20119;-73
2022/11/14 02:21:10;;;;;;;15.65;6.45;;;;;;;;;;4888641;28;20047;-73
2022/11/14 02:23:37;;;;;;;17.30;6.55;;;;;;;;;;4959542;28;20050;-73
2022/11/14 02:26:03;;;;;;;16.00;7.13;;;;;;;;;;4980387;28;20133;-73
2022/11/14 02:28:36;;;;;;;16.85;7.28;;;;;;;;;;4960321;28;20106;-74
2022/11/14 02:31:03;;;;;;;15.35;6.97;;;;;;;;;;4982688;28;20061;-73
2022/11/14 02:33:30;;;;;;;14.55;6.53;;;;;;;;;;4968304;28;20051;-74
2022/11/14 02:35:58;;;;;;;15.63;7.20;;;;;;;;;;4952251;28;20062;-74
2022/11/14 02:38:29;;;;;;;16.67;7.43;;;;;;;;;;4934153;28;20149;-74
2022/11/14 02:48:34;;;;;;;16.77;7.03;;;;;;;;;;4998319;27;1370533;-73
2022/11/14 02:51:00;;;;;;;19.33;7.30;;;;;;;;;;4969407;28;20062;-72
2022/11/14 02:53:27;;;;;;;17.00;7.38;;;;;;;;;;4965514;28;20206;-72
2022/11/14 03:03:27;;;;;;;15.52;7.57;;;;;;;;;;5019998;27;20421;-74
2022/11/14 03:05:58;;;;;;;17.60;7.70;;;;;;;;;;4929367;28;20068;-73
2022/11/14 03:18:06;;;;;;;16.23;7.47;;;;;;;;;;4851190;28;20043;-72
2022/11/14 03:20:34;;;;;;;18.60;7.30;;;;;;;;;;4911160;28;20134;-72
2022/11/14 03:23:01;;;;;;;15.80;7.32;;;;;;;;;;4946688;28;20050;-72
2022/11/14 03:25:28;;;;;;;19.23;7.47;;;;;;;;;;4971037;28;20093;-72
2022/11/14 03:35:44;;;;;;;16.45;7.60;;;;;;;;;;5023800;27;20145;-71
2022/11/14 03:38:13;;;;;;;15.10;6.95;;;;;;;;;;5049700;28;20060;-71
2022/11/14 03:40:46;;;;;;;18.00;8.18;;;;;;;;;;5018532;28;20080;-71
2022/11/14 03:43:14;;;;;;;19.00;7.55;;;;;;;;;;4947658;28;20360;-71
2022/11/14 03:45:41;;;;;;;17.50;6.95;;;;;;;;;;4974524;28;20058;-71
2022/11/14 03:48:11;;;;;;;18.30;8.23;;;;;;;;;;4981452;28;20050;-71
2022/11/14 03:50:37;;;;;;;17.95;7.82;;;;;;;;;;4978955;28;20144;-71
2022/11/14 03:53:07;;;;;;;19.20;8.35;;;;;;;;;;4961319;28;20058;-73
2022/11/14 04:00:45;;;;;;;18.45;7.68;;;;;;;;;;5013177;27;20437;-73
2022/11/14 04:03:12;;;;;;;19.58;7.93;;;;;;;;;;4947906;28;20050;-73
2022/11/14 04:10:48;;;;;;;18.70;8.07;;;;;;;;;;5054063;27;20485;-73
2022/11/14 04:13:15;;;;;;;18.88;7.97;;;;;;;;;;5005665;28;20058;-73
2022/11/14 04:15:42;;;;;;;17.88;8.23;;;;;;;;;;4951674;28;20059;-74
2022/11/14 04:25:43;;;;;;;18.60;8.10;;;;;;;;;;4908585;27;4207845;-73
2022/11/14 04:28:10;;;;;;;23.63;8.60;;;;;;;;;;4991445;28;20598;-73
2022/11/14 04:35:51;;;;;;;20.55;8.57;;;;;;;;;;4992614;27;20452;-73
2022/11/14 04:38:19;;;;;;;20.27;8.52;;;;;;;;;;4918181;28;20055;-73
2022/11/14 04:48:22;;;;;;;20.25;7.93;;;;;;;;;;4921697;27;20537;-72
2022/11/14 04:50:52;;;;;;;22.05;8.52;;;;;;;;;;4912692;28;21239;-72
2022/11/14 04:53:22;;;;;;;23.52;8.38;;;;;;;;;;4912663;28;20154;-72
2022/11/14 04:55:58;;;;;;;19.42;8.38;;;;;;;;;;4876905;28;20131;-72
2022/11/14 04:58:28;;;;;;;19.10;8.05;;;;;;;;;;4886726;29;20051;-73
2022/11/14 05:00:56;;;;;;;20.05;8.25;;;;;;;;;;4836036;29;20056;-73
2022/11/14 05:08:15;;;;;;;20.35;7.95;;;;;;;;;;4879055;28;20055;-72
2022/11/14 05:10:43;;;;;;;21.20;8.45;;;;;;;;;;4919391;28;20059;-72
2022/11/14 05:13:09;;;;;;;20.02;7.70;;;;;;;;;;4909026;28;20601;-73
2022/11/14 05:23:13;;;;;;;20.85;8.65;;;;;;;;;;5040744;27;20680;-73
2022/11/14 05:25:40;;;;;;;20.77;8.75;;;;;;;;;;4969652;28;20173;-73
2022/11/14 05:28:07;;;;;;;21.95;8.80;;;;;;;;;;4914275;28;20151;-74
2022/11/14 05:30:33;;;;;;;23.27;8.73;;;;;;;;;;4910320;28;20064;-74
2022/11/14 05:33:01;;;;;;;20.73;8.23;;;;;;;;;;4924052;28;20150;-73
2022/11/14 05:40:35;;;;;;;19.60;8.65;;;;;;;;;;4967471;27;20454;-73
2022/11/14 05:43:01;;;;;;;21.63;8.85;;;;;;;;;;4901892;28;20051;-73
2022/11/14 05:45:28;;;;;;;22.63;9.05;;;;;;;;;;4962481;28;20045;-73
2022/11/14 05:47:55;;;;;;;24.55;9.55;;;;;;;;;;4998510;28;20053;-73
2022/11/14 05:50:25;;;;;;;21.98;8.82;;;;;;;;;;4940899;28;20205;-73
2022/11/14 05:52:52;;;;;;;20.10;8.23;;;;;;;;;;4903693;28;20109;-73
2022/11/14 05:58:02;;;;;;;22.00;8.02;;;;;;;;;;5078254;27;20133;-73
2022/11/14 06:00:29;;;;;;;22.52;8.13;;;;;;;;;;5042066;28;20048;-73
2022/11/14 06:02:56;;;;;;;23.10;8.57;;;;;;;;;;5045947;28;20128;-73
2022/11/14 06:05:23;;;;;;;19.67;8.43;;;;;;;;;;5024758;28;20071;-72
2022/11/14 06:12:57;;;;;;;18.80;8.00;;;;;;;;;;4977953;27;20622;-73
2022/11/14 06:15:24;;;;;;;17.67;7.13;;;;;;;;;;4935875;28;20047;-73
2022/11/14 06:17:52;;;;;;;19.35;8.52;;;;;;;;;;4926766;28;20047;-73
2022/11/14 06:20:18;;;;;;;19.67;7.93;;;;;;;;;;4929288;28;20074;-73
2022/11/14 06:22:45;;;;;;;18.08;7.72;;;;;;;;;;4947930;28;20077;-73
2022/11/14 06:35:12;;;;;;;18.73;8.02;;;;;;;;;;5060538;27;20510;-73
2022/11/14 06:37:38;;;;;;;23.58;8.13;;;;;;;;;;4971528;28;20102;-74
2022/11/14 06:40:14;;;;;;;20.90;8.50;;;;;;;;;;4954849;28;20137;-74
2022/11/14 06:52:45;;;;;;;20.10;8.35;;;;;;;;;;5015186;27;20719;-72
2022/11/14 06:55:11;;;;;;;19.35;8.10;;;;;;;;;;5005399;28;20077;-71
2022/11/14 06:57:40;;;;;;;20.42;7.95;;;;;;;;;;4993364;28;20061;-72
2022/11/14 07:00:09;;;;;;;;;;;;;;;;;;5011888;28;20064;-72
2022/11/14 07:02:36;;;;;;;16.45;6.95;;;;;;;;;;5000782;28;19925;-72
2022/11/14 07:05:06;;;;;;;20.23;8.25;;;;;;;;;;4954982;28;20078;-71
2022/11/14 07:07:36;;;;;;;20.08;7.95;;;;;;;;;;4974319;28;20060;-71
2022/11/14 07:10:12;;;;;;;20.85;8.20;;;;;;;;;;4953433;28;20047;-72
2022/11/14 07:27:28;;;;;;;21.52;8.50;;;;;;;;;;5048537;27;20426;-72
2022/11/14 07:29:57;;;;;;;19.15;7.75;;;;;;;;;;4961892;28;20050;-72
2022/11/14 07:32:39;;;;;;;19.08;7.63;;;;;;;;;;4953434;28;20171;-73
2022/11/14 07:40:34;;;;;;;17.45;7.30;;;;;;;;;;5091096;27;20441;-73
2022/11/14 07:43:02;;;;;;;19.25;7.68;;;;;;;;;;4956541;28;20061;-72
2022/11/14 07:50:39;;;;;;;20.08;8.10;;;;;;;;;;5054633;27;20383;-73
2022/11/14 07:53:08;;;;;;;19.02;7.72;;;;;;;;;;4991711;28;20049;-73
2022/11/14 07:55:38;;;;;;;19.63;8.13;;;;;;;;;;4968995;28;20059;-72
2022/11/14 07:58:05;;;;;;;21.70;7.43;;;;;;;;;;4940991;28;20058;-73
2022/11/14 08:00:32;;;;;;;18.23;8.00;;;;;;;;;;4977653;28;20312;-73
2022/11/14 08:10:36;;;;;;;17.77;7.38;;;;;;;;;;4990306;27;20529;-73
2022/11/14 08:13:04;;;;;;;18.95;7.38;;;;;;;;;;4947260;28;20074;-72
2022/11/14 08:23:05;;;;;;;18.15;7.53;;;;;;;;;;5008180;27;1451366;-73
2022/11/14 08:25:32;;;;;;;20.75;7.97;;;;;;;;;;5050342;28;20041;-73
2022/11/14 08:27:59;;;;;;;17.48;7.60;;;;;;;;;;5036702;28;20059;-73
2022/11/14 08:30:27;;;;;;;18.65;7.70;;;;;;;;;;4992324;28;20059;-73
2022/11/14 08:32:54;;;;;;;21.90;8.43;;;;;;;;;;4988124;28;20062;-73
2022/11/14 08:40:31;;;;;;;16.48;7.25;;;;;;;;;;5018922;27;21494;-72
2022/11/14 08:43:01;;;;;;;23.27;7.93;;;;;;;;;;4965921;28;20049;-73
2022/11/14 08:45:28;;;;;;;19.50;7.53;;;;;;;;;;4969841;28;20050;-73
2022/11/14 08:47:55;;;;;;;20.70;7.10;;;;;;;;;;4952802;28;20164;-73
2022/11/14 08:55:30;;;;;;;18.73;7.60;;;;;;;;;;5042164;27;20554;-72
2022/11/14 08:57:57;;;;;;;16.30;7.47;;;;;;;;;;4944789;28;20058;-73
2022/11/14 09:05:36;;;;;;;17.48;7.63;;;;;;;;;;5021198;27;20500;-73
2022/11/14 09:08:03;;;;;;;16.65;7.03;;;;;;;;;;4997685;28;20069;-73
2022/11/14 09:10:30;;;;;;;15.23;6.97;;;;;;;;;;4959326;28;20059;-73
2022/11/14 09:20:34;;;;;;;21.83;7.43;;;;;;;;;;5000530;27;20434;-72
2022/11/14 09:23:01;;;;;;;19.75;7.35;;;;;;;;;;4965954;28;20054;-72
2022/11/14 09:25:28;;;;;;;17.52;7.28;;;;;;;;;;4948471;28;20073;-72
2022/11/14 09:27:54;;;;;;;17.20;7.00;;;;;;;;;;4931194;28;20055;-72
2022/11/14 09:30:25;;;;;;;16.90;6.63;;;;;;;;;;4955182;28;20065;-72
2022/11/14 09:32:51;;;;;;;13.95;6.57;;;;;;;;;;4951504;28;20157;-72
2022/11/14 09:37:45;;;;;;;15.63;6.73;;;;;;;;;;4888832;28;20084;-72
2022/11/14 09:40:13;;;;;;;15.82;7.47;;;;;;;;;;4871607;28;20359;-74
2022/11/14 09:42:49;;;;;;;16.35;7.45;;;;;;;;;;4880244;28;20185;-73
2022/11/14 09:45:19;;;;;;;17.45;7.53;;;;;;;;;;4934993;28;20177;-73
2022/11/14 09:47:46;;;;;;;17.95;7.30;;;;;;;;;;4973169;28;20061;-73
2022/11/14 09:50:14;;;;;;;17.05;7.05;;;;;;;;;;4968540;28;20050;-72
2022/11/14 09:55:13;;;;;;;19.27;8.00;;;;;;;;;;4916936;28;20315;-72
2022/11/14 09:57:43;;;;;;;18.48;7.93;;;;;;;;;;4874948;29;20352;-72
2022/11/14 10:00:14;;;;;;;17.23;7.45;;;;;;;;;;4899507;28;20056;-72
2022/11/14 10:02:53;;;;;;;24.02;7.93;;;;;;;;;;4853592;29;20045;-73
2022/11/14 10:05:36;;;;;;;15.57;7.90;;;;;;;;;;4854697;29;20073;-72
2022/11/14 10:08:24;;;;;;;20.75;7.85;;;;;;;;;;4851094;29;20056;-73
2022/11/14 10:18:51;;;;;;;19.85;7.32;;;;;;;;;;5060261;27;20399;-73
2022/11/14 10:21:30;;;;;;;16.75;7.15;;;;;;;;;;4975430;28;20053;-72
2022/11/14 10:29:40;;;;;;;15.35;6.95;;;;;;;;;;5035681;28;20502;-73
2022/11/14 10:32:20;;;;;;;16.52;7.20;;;;;;;;;;4933381;28;20063;-72
2022/11/14 10:45:13;;;;;;;16.65;6.95;;;;;;;;;;5002821;27;20476;-73
2022/11/14 10:47:49;;;;;;;17.00;7.28;;;;;;;;;;4940166;28;20063;-73
2022/11/14 10:55:31;;;;;;;15.98;6.50;;;;;;;;;;4963428;28;20444;-73
2022/11/14 10:58:09;;;;;;;13.43;6.20;;;;;;;;;;4941348;28;20190;-72
2022/11/14 11:00:45;;;;;;;15.93;6.22;;;;;;;;;;4875176;29;20061;-75
2022/11/14 11:11:32;;;;;;;14.38;6.47;;;;;;;;;;5061291;27;20476;-73
2022/11/14 11:14:23;;;;;;;16.17;6.55;;;;;;;;;;4993963;28;20050;-72
2022/11/14 11:17:25;;;;;;;17.45;7.38;;;;;;;;;;4980559;28;20061;-72
2022/11/14 11:28:05;;;;;;;14.70;6.90;;;;;;;;;;5010734;28;20484;-73
2022/11/14 11:30:32;;;;;;;16.48;7.25;;;;;;;;;;4916090;28;20075;-73
2022/11/14 11:48:59;;;;;;;15.48;6.35;;;;;;;;;;4952823;28;20525;-72
2022/11/14 11:51:30;;;;;;;15.77;6.53;;;;;;;;;;4900391;28;20070;-73
2022/11/14 11:53:58;;;;;;;14.80;6.70;;;;;;;;;;4967701;28;20217;-73
2022/11/14 11:56:26;;;;;;;15.27;7.05;;;;;;;;;;4961851;28;20047;-73
2022/11/14 11:58:55;;;;;;;15.32;6.95;;;;;;;;;;4842127;29;20060;-73
2022/11/14 12:06:39;;;;;;;17.90;7.65;;;;;;;;;;5078813;27;20131;-73
2022/11/14 12:09:12;;;;;;;14.77;6.88;;;;;;;;;;5030170;28;20058;-73
2022/11/14 12:11:43;;;;;;;18.95;8.18;;;;;;;;;;4906613;28;20066;-73
2022/11/14 12:19:41;;;;;;;16.67;7.47;;;;;;;;;;5016913;27;20640;-73
2022/11/14 12:22:07;;;;;;;;;;;;;;;;;;4902464;28;20068;-73
2022/11/14 12:34:40;;;;;;;22.08;8.98;;;;;;;;;;4973405;28;20492;-73
2022/11/14 12:37:09;;;;;;;21.92;8.88;;;;;;;;;;4899221;28;20224;-74
2022/11/14 12:47:18;;;;;;;20.65;8.70;;;;;;;;;;5023256;27;20538;-72
2022/11/14 12:50:02;;;;;;;17.80;8.35;;;;;;;;;;4946759;28;20074;-73
2022/11/14 12:52:43;;;;;;;21.67;8.88;;;;;;;;;;4921117;28;20055;-73
2022/11/14 13:00:25;;;;;;;20.55;8.82;;;;;;;;;;4851997;29;20205;-73
2022/11/14 13:37:20;;;;;;;14.07;6.82;;;;;;;;;;5101182;27;20474;-71
2022/11/14 13:39:54;;;;;;;20.63;8.83;;;;;;;;;;5035992;28;20069;-73
2022/11/14 13:42:28;;;;;;;21.20;8.80;;;;;;;;;;5052920;28;20267;-74
2022/11/14 13:45:12;;;;;;;19.55;8.73;;;;;;;;;;5021582;28;20053;-73
2022/11/14 13:47:56;;;;;;;22.42;9.13;;;;;;;;;;4981372;28;20061;-74
2022/11/14 13:50:29;;;;;;;18.77;8.63;;;;;;;;;;5038039;28;20053;-73
2022/11/14 13:53:01;;;;;;;24.27;9.13;;;;;;;;;;5059519;28;20060;-74
2022/11/14 13:55:32;;;;;;;21.40;9.35;;;;;;;;;;5031593;28;20052;-74
2022/11/14 13:58:05;;;;;;;25.20;9.82;;;;;;;;;;5067492;28;20059;-74
2022/11/14 14:00:45;;;;;;;22.15;9.00;;;;;;;;;;5052025;28;20109;-74
2022/11/14 14:03:28;;;;;;;24.48;9.00;;;;;;;;;;5053586;28;20139;-74
2022/11/14 14:06:01;;;;;;;22.70;9.07;;;;;;;;;;5063899;28;20039;-73
2022/11/14 14:08:49;;;;;;;20.45;9.27;;;;;;;;;;5043998;28;20073;-74
2022/11/14 14:11:28;;;;;;;20.25;9.68;;;;;;;;;;5048388;28;20215;-74
2022/11/14 14:14:02;;;;;;;22.95;10.07;;;;;;;;;;5050134;28;20112;-73
2022/11/14 14:16:33;;;;;;;21.52;9.52;;;;;;;;;;5013909;28;20127;-72
2022/11/14 14:19:04;;;;;;;22.15;8.90;;;;;;;;;;5017488;28;20053;-72
2022/11/14 14:24:51;;;;;;;21.58;9.00;;;;;;;;;;4947789;28;20076;-73
2022/11/14 14:27:24;;;;;;;22.10;9.25;;;;;;;;;;5016829;28;20061;-73
2022/11/14 14:29:55;;;;;;;20.20;9.30;;;;;;;;;;5045685;28;20069;-73
2022/11/14 14:32:22;;;;;;;26.10;10.60;;;;;;;;;;5028064;28;20056;-73
2022/11/14 14:34:55;;;;;;;23.88;9.95;;;;;;;;;;5024283;28;21402;-73
2022/11/14 14:37:23;;;;;;;21.33;9.43;;;;;;;;;;5017632;28;20128;-73
2022/11/14 14:39:58;;;;;;;21.15;9.13;;;;;;;;;;4999446;28;20126;-73
2022/11/14 14:42:26;;;;;;;23.45;9.32;;;;;;;;;;4962379;28;20057;-73
2022/11/14 14:44:53;;;;;;;22.23;8.77;;;;;;;;;;4983794;28;20060;-72
2022/11/14 14:47:31;;;;;;;22.40;8.90;;;;;;;;;;4965617;28;20322;-72
2022/11/14 14:49:58;;;;;;;22.33;10.07;;;;;;;;;;4982560;28;20048;-72
2022/11/14 14:52:31;;;;;;;21.02;9.75;;;;;;;;;;4986674;28;20049;-72
2022/11/14 14:55:01;;;;;;;23.50;9.27;;;;;;;;;;5032939;28;20062;-73
2022/11/14 14:57:28;;;;;;;27.55;9.63;;;;;;;;;;4977216;28;20056;-73
2022/11/14 15:03:14;;;;;;;22.60;8.68;;;;;;;;;;5013764;28;20057;-73
2022/11/14 15:05:41;;;;;;;22.80;9.75;;;;;;;;;;5008029;28;20050;-72
2022/11/14 15:08:17;;;;;;;26.00;10.20;;;;;;;;;;4996084;28;20576;-72
2022/11/14 15:11:00;;;;;;;25.58;9.88;;;;;;;;;;4990434;28;20128;-73
2022/11/14 15:13:33;;;;;;;23.38;9.55;;;;;;;;;;4983231;28;20107;-72
2022/11/14 15:16:05;;;;;;;22.45;9.68;;;;;;;;;;4995759;28;20312;-72
2022/11/14 15:18:42;;;;;;;21.88;10.07;;;;;;;;;;4929146;28;20213;-72
2022/11/14 15:21:33;;;;;;;24.35;9.52;;;;;;;;;;4932806;28;20058;-73
2022/11/14 15:24:06;;;;;;;22.33;9.40;;;;;;;;;;4946403;28;20141;-73
2022/11/14 15:26:39;;;;;;;26.38;10.35;;;;;;;;;;4915979;28;20187;-73
2022/11/14 15:29:18;;;;;;;27.58;10.10;;;;;;;;;;4939813;28;20069;-73
2022/11/14 15:31:51;;;;;;;24.52;10.23;;;;;;;;;;4960542;28;20065;-73
2022/11/14 15:34:24;;;;;;;23.55;10.48;;;;;;;;;;4932331;28;20065;-73
2022/11/14 15:39:35;;;;;;;24.63;10.35;;;;;;;;;;4905904;29;20167;-73
2022/11/14 15:44:33;;;;;;;19.90;9.10;;;;;;;;;;4908490;28;20088;-73
2022/11/14 15:47:03;;;;;;;20.98;8.98;;;;;;;;;;4981283;28;20054;-73
2022/11/14 15:49:30;;;;;;;22.58;9.38;;;;;;;;;;4930089;28;20051;-74
2022/11/14 15:52:00;;;;;;;18.00;8.50;;;;;;;;;;4925489;28;20050;-73
2022/11/14 15:54:52;;;;;;;26.45;10.07;;;;;;;;;;4956286;28;20053;-73
2022/11/14 15:57:19;;;;;;;19.25;9.15;;;;;;;;;;4947101;28;20104;-73
2022/11/14 15:59:50;;;;;;;24.67;9.93;;;;;;;;;;4965888;28;20230;-74
2022/11/14 16:02:19;;;;;;;21.15;8.75;;;;;;;;;;4950988;28;20047;-74
2022/11/14 16:04:46;;;;;;;21.50;9.00;;;;;;;;;;4919517;28;20350;-74
2022/11/14 16:07:13;;;;;;;22.38;10.38;;;;;;;;;;4947036;28;20264;-74
2022/11/14 16:09:40;;;;;;;25.95;9.68;;;;;;;;;;4918456;28;21394;-73
2022/11/14 16:12:07;;;;;;;24.70;9.50;;;;;;;;;;4949785;28;20065;-73
2022/11/14 16:14:34;;;;;;;20.65;9.02;;;;;;;;;;4982744;28;20187;-74
2022/11/14 16:19:51;;;;;;;21.63;9.98;;;;;;;;;;4929805;28;20046;-72
2022/11/14 16:22:18;;;;;;;19.88;8.95;;;;;;;;;;4948117;28;20053;-73
2022/11/14 16:37:37;;;;;;;18.08;8.73;;;;;;;;;;4920272;28;20297;-74
2022/11/14 16:42:32;;;;;;;23.77;8.60;;;;;;;;;;4951912;28;20137;-72
2022/11/14 16:45:01;;;;;;;20.00;9.13;;;;;;;;;;4993932;28;20132;-72
2022/11/14 16:47:27;;;;;;;19.55;8.77;;;;;;;;;;5007097;28;20106;-72
2022/11/14 16:50:10;;;;;;;18.67;8.23;;;;;;;;;;4989608;28;20060;-72
2022/11/14 16:52:41;;;;;;;20.27;8.60;;;;;;;;;;5003306;28;20052;-73
2022/11/14 16:55:11;;;;;;;21.08;8.57;;;;;;;;;;4991341;28;20052;-73
2022/11/14 16:57:38;;;;;;;19.67;8.75;;;;;;;;;;4992242;28;20124;-73
2022/11/14 17:00:11;;;;;;;16.33;7.70;;;;;;;;;;4968114;28;20057;-71
2022/11/14 17:02:37;;;;;;;20.92;8.57;;;;;;;;;;4976069;28;20394;-73
2022/11/14 17:05:04;;;;;;;18.20;8.60;;;;;;;;;;4988920;28;20111;-73
2022/11/14 17:07:34;;;;;;;17.60;8.45;;;;;;;;;;4966050;28;20054;-73
2022/11/14 17:10:14;;;;;;;17.55;8.18;;;;;;;;;;4974249;28;20058;-73
2022/11/14 17:17:48;;;;;;;15.55;7.82;;;;;;;;;;4906695;28;20369;-73
2022/11/14 17:30:20;;;;;;;15.10;7.65;;;;;;;;;;4889889;28;20118;-73
2022/11/14 17:32:52;;;;;;;17.48;7.72;;;;;;;;;;4909109;28;20181;-73
2022/11/14 17:35:27;;;;;;;20.48;8.52;;;;;;;;;;4915153;28;20083;-74
2022/11/14 17:38:01;;;;;;;16.67;7.82;;;;;;;;;;4954527;28;20410;-74
2022/11/14 17:40:34;;;;;;;18.10;8.27;;;;;;;;;;5001325;28;20051;-74
2022/11/14 17:43:01;;;;;;;16.80;7.93;;;;;;;;;;5045214;28;20059;-74
2022/11/14 17:45:34;;;;;;;17.08;7.65;;;;;;;;;;5049784;28;20079;-73
2022/11/14 17:48:01;;;;;;;19.67;7.82;;;;;;;;;;5050503;28;20064;-73
2022/11/14 17:50:32;;;;;;;17.25;8.23;;;;;;;;;;5049279;28;20045;-73
2022/11/14 17:52:59;;;;;;;17.90;8.32;;;;;;;;;;5081895;28;20049;-74
2022/11/14 17:55:28;;;;;;;19.48;8.45;;;;;;;;;;5053232;28;20071;-74
2022/11/14 17:57:54;;;;;;;19.42;7.88;;;;;;;;;;5056011;28;20056;-74
2022/11/14 18:00:27;;;;;;;17.58;8.35;;;;;;;;;;5051573;28;20045;-73
2022/11/14 18:02:58;;;;;;;20.10;8.13;;;;;;;;;;5040074;28;20049;-73
2022/11/14 18:05:26;;;;;;;18.38;8.13;;;;;;;;;;5029350;28;20341;-73
2022/11/14 18:07:57;;;;;;;17.67;7.70;;;;;;;;;;5040421;28;20072;-74
2022/11/14 18:10:39;;;;;;;20.02;7.50;;;;;;;;;;5037367;28;20056;-74
2022/11/14 18:13:05;;;;;;;15.05;7.55;;;;;;;;;;5048527;28;20066;-73
2022/11/14 18:15:43;;;;;;;16.88;7.88;;;;;;;;;;5047315;28;20139;-73
2022/11/14 18:18:14;;;;;;;18.95;8.13;;;;;;;;;;5065841;28;20052;-74
2022/11/14 18:20:41;;;;;;;18.90;8.00;;;;;;;;;;5043384;28;20147;-74
2022/11/14 18:23:12;;;;;;;16.52;7.90;;;;;;;;;;5034767;28;20057;-74
2022/11/14 18:25:42;;;;;;;15.45;7.85;;;;;;;;;;5031285;28;20056;-74
2022/11/14 18:28:08;;;;;;;19.13;8.07;;;;;;;;;;5038846;28;20048;-74
2022/11/14 18:30:41;;;;;;;18.45;8.07;;;;;;;;;;5033023;28;20139;-75
2022/11/14 18:33:08;;;;;;;15.80;7.70;;;;;;;;;;5029633;28;20060;-72
2022/11/14 18:35:38;;;;;;;17.10;7.90;;;;;;;;;;5006022;28;20056;-73
2022/11/14 18:46:43;;;;;;;17.77;7.75;;;;;;;;;;4996339;27;20515;-72
2022/11/14 18:49:12;;;;;;;15.60;7.60;;;;;;;;;;4978719;28;20065;-73
2022/11/14 18:51:40;;;;;;;;;;;;;;;;;;4979379;28;20060;-72
2022/11/14 18:54:12;;;;;;;13.60;6.03;;;;;;;;;;4981383;28;21162;-72
2022/11/14 18:56:42;;;;;;;19.20;7.28;;;;;;;;;;4977186;28;20123;-72
2022/11/14 18:59:09;;;;;;;16.58;7.57;;;;;;;;;;4983335;28;20057;-72
2022/11/14 19:01:40;;;;;;;17.85;7.38;;;;;;;;;;5002040;28;20049;-71
2022/11/14 19:04:12;;;;;;;14.77;7.57;;;;;;;;;;5009060;28;20045;-71
2022/11/14 19:06:51;;;;;;;;;;;;;;;;;;;;;
2022/11/14 19:17:35;;;;;;;15.98;7.50;;;;;;;;;;4989105;27;20466;-73
2022/11/14 19:20:38;;;;;;;14.25;7.07;;;;;;;;;;4910997;28;20056;-74
2022/11/14 19:23:27;;;;;;;14.57;7.32;;;;;;;;;;4870271;28;20051;-74
2022/11/14 19:29:12;;;;;;;15.35;7.00;;;;;;;;;;4990113;27;20718;-74
2022/11/14 19:32:00;;;;;;;16.48;6.85;;;;;;;;;;4921452;28;20047;-73
2022/11/14 19:39:51;;;;;;;15.27;7.20;;;;;;;;;;4908159;27;3806274;-73
2022/11/14 19:42:29;;;;;;;15.32;6.78;;;;;;;;;;4960096;28;20316;-74
2022/11/14 19:45:01;;;;;;;16.20;7.57;;;;;;;;;;4948886;28;20050;-73
2022/11/14 19:49:58;;;;;;;16.45;7.70;;;;;;;;;;4866807;28;20051;-73
2022/11/14 19:52:28;;;;;;;18.08;7.28;;;;;;;;;;4928206;28;20054;-72
2022/11/14 19:55:11;;;;;;;16.33;7.43;;;;;;;;;;4921838;28;20065;-73
2022/11/14 19:57:41;;;;;;;15.73;6.82;;;;;;;;;;4886946;28;20277;-73
2022/11/14 20:08:04;;;;;;;16.67;7.97;;;;;;;;;;4953281;28;20059;-73
2022/11/14 20:16:30;;;;;;;17.90;8.30;;;;;;;;;;4976114;27;20523;-71
2022/11/14 20:19:05;;;;;;;17.27;7.10;;;;;;;;;;4890591;28;20091;-75
2022/11/14 20:33:57;;;;;;;14.55;7.30;;;;;;;;;;5076358;27;20141;-74
2022/11/14 20:36:25;;;;;;;18.98;7.72;;;;;;;;;;5022003;28;20545;-73
2022/11/14 20:39:03;;;;;;;14.95;6.55;;;;;;;;;;4970954;28;20066;-74
2022/11/14 20:47:02;;;;;;;14.73;6.80;;;;;;;;;;4981536;27;20533;-73
2022/11/14 20:49:38;;;;;;;15.35;7.10;;;;;;;;;;4934892;28;20126;-73
2022/11/14 20:57:26;;;;;;;12.88;6.15;;;;;;;;;;5000322;27;20480;-73
2022/11/14 21:00:00;;;;;;;13.48;6.43;;;;;;;;;;4956747;28;20058;-73
2022/11/14 21:08:29;;;;;;;14.57;6.43;;;;;;;;;;5006412;27;20463;-73
2022/11/14 21:11:16;;;;;;;14.10;6.13;;;;;;;;;;4964872;28;20053;-73
2022/11/14 21:13:58;;;;;;;13.15;6.03;;;;;;;;;;4985963;28;20050;-73
2022/11/14 21:22:02;;;;;;;12.80;5.90;;;;;;;;;;4988121;28;20490;-72
2022/11/14 21:43:30;;;;;;;10.20;3.95;;;;;;;;;;5591694;22;14027751;-75
2022/11/14 21:46:00;;;;;;;13.10;5.32;;;;;;;;;;6018798;23;20271;-73
2022/11/14 21:48:56;;;;;;;12.93;5.53;;;;;;;;;;5944813;23;20036;-72
2022/11/14 22:04:10;;;;;;;15.18;5.82;;;;;;;;;;5015249;27;20414;-72
2022/11/14 22:04:11;;;;;;;13.57;6.35;;;;;;;;;;5048968;28;20299;-70
2022/11/14 22:06:37;;;;;;;11.38;5.40;;;;;;;;;;5041352;27;20052;-71
2022/11/14 22:09:04;;;;;;;13.73;5.70;;;;;;;;;;5052052;28;20140;-70
2022/11/14 22:11:31;;;;;;;14.32;5.93;;;;;;;;;;5047487;28;20063;-70
2022/11/14 22:13:57;;;;;;;13.55;6.18;;;;;;;;;;5049995;28;20053;-70
2022/11/14 22:16:26;;;;;;;12.60;5.50;;;;;;;;;;5046361;28;20071;-71
2022/11/14 22:18:53;;;;;;;13.52;5.43;;;;;;;;;;5053400;28;21006;-72
2022/11/14 22:21:19;;;;;;;12.85;5.63;;;;;;;;;;5048315;28;20064;-72
2022/11/14 22:23:53;;;;;;;12.93;5.60;;;;;;;;;;5052841;28;20067;-72
2022/11/14 22:26:26;;;;;;;13.15;5.43;;;;;;;;;;5011030;28;20155;-72
2022/11/14 22:28:56;;;;;;;13.23;5.85;;;;;;;;;;5040271;28;20098;-72
2022/11/14 22:31:27;;;;;;;13.85;5.88;;;;;;;;;;5015932;28;20068;-72
2022/11/14 22:33:57;;;;;;;13.13;5.85;;;;;;;;;;5020185;28;20068;-72
2022/11/14 22:36:29;;;;;;;12.93;5.88;;;;;;;;;;5028936;28;20053;-72
2022/11/14 22:38:56;;;;;;;14.25;6.05;;;;;;;;;;4981185;28;20038;-71
2022/11/14 22:41:25;;;;;;;12.82;5.80;;;;;;;;;;4955227;28;20054;-72
2022/11/14 22:43:52;;;;;;;14.80;6.30;;;;;;;;;;4951776;28;20050;-72
2022/11/14 22:46:21;;;;;;;12.00;5.20;;;;;;;;;;4964271;28;20062;-72
2022/11/14 22:49:02;;;;;;;16.27;6.25;;;;;;;;;;4940484;28;20177;-72
2022/11/14 22:51:30;;;;;;;12.02;5.13;;;;;;;;;;4970973;28;20484;-72
2022/11/14 22:53:58;;;;;;;13.52;5.28;;;;;;;;;;4944340;28;20088;-72
2022/11/14 22:56:28;;;;;;;11.80;4.93;;;;;;;;;;4984293;28;20057;-72
2022/11/14 22:59:04;;;;;;;12.25;5.95;;;;;;;;;;4977412;28;20056;-72